Main page
METAR-TAF:

METAR-TAF

Airports :

AAC Middle Wallop

Middle Wallop, England

latitude: 51-09N, longitude: 001-34W, elevation: 91 m

Current weather observation

The report was made 57 minutes ago, at 03:50 UTC
Wind 3 kt from the North/Northwest
Temperature 16°C
Humidity 88%
Pressure 1015 hPa
Visibility 10 km or more

METAR: EGVP 220350Z AUTO 33003KT 9999 // OVC120/// 16/14 Q1015

Time: 05:47 (04:47 UTC)


TAF: missing

Weather observations and forecasts of more than 4000 airports (METAR and TAF reports).

The available stations are represented by yellow and red dots on the map.

Hover mouse over dot to see the name of the station.

Then click to see weather observations and forecasts.

To change the map : click on the green buttons with a black cross to zoom in, on the green button with a dash to zoom out, or on the green arrows for adjacent maps.


METAR-TAF: